Time;durP1;ratioP1;P1;durP2;ratioP2;P2;SDS_P1;SDS_P2;PMS_P1;PMS_P2;Temp;Humidity;BMP_temperature;BMP_pressure;BME280_temperature;BME280_humidity;BME280_pressure;Samples;Min_cycle;Max_cycle;Signal;HPM_P1;HPM_P2
2023/03/11 00:01:31;;;;;;;;;;;;;;;13.67;100.00;98174.56;5009442;28;820;-68
2023/03/11 00:03:59;;;;;;;;;;;;;;;13.68;100.00;98169.78;5009469;28;867;-67
2023/03/11 00:06:25;;;;;;;;;;;;;;;13.71;100.00;98165.31;5009344;28;1890;-66
2023/03/11 00:08:52;;;;;;;;;;;;;;;13.71;100.00;98154.97;5009212;28;943;-68
2023/03/11 00:11:21;;;;;;;;;;;;;;;13.72;100.00;98150.19;5009251;28;1313;-67
2023/03/11 00:13:47;;;;;;;;;;;;;;;13.73;100.00;98146.19;5009342;28;848;-67
2023/03/11 00:16:13;;;;;;;;;;;;;;;13.76;100.00;98140.47;5009328;28;939;-67
2023/03/11 00:18:40;;;;;;;;;;;;;;;13.81;100.00;98131.53;5047367;28;962;-66
2023/03/11 00:21:14;;;;;;;;;;;;;;;13.88;100.00;98120.09;5051120;28;807;-66
2023/03/11 00:23:40;;;;;;;;;;;;;;;13.94;100.00;98125.03;5051151;28;890;-66
2023/03/11 00:26:06;;;;;;;;;;;;;;;13.96;100.00;98114.22;5050806;28;1969;-66
2023/03/11 00:28:32;;;;;;;;;;;;;;;13.97;100.00;98113.72;5050855;28;820;-67
2023/03/11 00:30:59;;;;;;;;;;;;;;;13.98;100.00;98117.31;5050898;28;923;-67
2023/03/11 00:33:26;;;;;;;;;;;;;;;13.96;100.00;98109.44;5053661;28;840;-67
2023/03/11 00:35:52;;;;;;;;;;;;;;;13.96;100.00;98103.13;5054568;28;824;-66
2023/03/11 00:38:19;;;;;;;;;;;;;;;13.95;100.00;98098.78;5054582;28;882;-66
2023/03/11 00:40:47;;;;;;;;;;;;;;;13.92;100.00;98094.16;5054728;28;869;-66
2023/03/11 00:43:13;;;;;;;;;;;;;;;13.91;100.00;98098.16;5054509;28;819;-66
2023/03/11 00:45:40;;;;;;;;;;;;;;;13.90;100.00;98091.84;5054418;28;883;-66
2023/03/11 00:48:07;;;;;;;;;;;;;;;13.91;100.00;98093.38;5054286;28;1937;-68
2023/03/11 00:50:34;;;;;;;;;;;;;;;13.93;100.00;98092.91;5054322;28;929;-68
2023/03/11 00:53:01;;;;;;;;;;;;;;;13.90;100.00;98086.31;5054334;28;903;-66
2023/03/11 00:55:29;;;;;;;;;;;;;;;13.82;100.00;98074.72;5054106;28;852;-67
2023/03/11 00:57:57;;;;;;;;;;;;;;;13.77;100.00;98075.38;5054226;28;808;-66
2023/03/11 01:00:23;;;;;;;;;;;;;;;13.79;100.00;98072.13;5054080;28;832;-66
2023/03/11 01:02:51;;;;;;;;;;;;;;;13.78;100.00;98074.13;5054034;28;911;-67
2023/03/11 01:05:21;;;;;;;;;;;;;;;13.78;100.00;98057.47;5054127;28;827;-66
2023/03/11 01:07:47;;;;;;;;;;;;;;;13.76;100.00;98059.19;5053904;28;1917;-66
2023/03/11 01:10:14;;;;;;;;;;;;;;;13.80;100.00;98048.69;5070199;28;1301;-67
2023/03/11 01:12:42;;;;;;;;;;;;;;;13.76;100.00;98059.19;5094164;28;823;-68
2023/03/11 01:15:14;;;;;;;;;;;;;;;13.76;100.00;98042.50;5094077;28;867;-68
2023/03/11 01:17:40;;;;;;;;;;;;;;;13.67;100.00;98046.84;5094072;28;799;-67
2023/03/11 01:20:09;;;;;;;;;;;;;;;13.61;100.00;98043.19;5094329;28;835;-67
2023/03/11 01:22:36;;;;;;;;;;;;;;;13.63;100.00;98032.38;5093853;28;827;-66
2023/03/11 01:25:02;;;;;;;;;;;;;;;13.67;100.00;98043.31;5093882;28;875;-66
2023/03/11 01:27:29;;;;;;;;;;;;;;;13.69;100.00;98036.06;5093804;28;2023;-67
2023/03/11 01:29:56;;;;;;;;;;;;;;;13.78;100.00;98037.25;5093770;28;859;-66
2023/03/11 01:32:22;;;;;;;;;;;;;;;13.76;100.00;98023.88;5093784;28;808;-66
2023/03/11 01:34:49;;;;;;;;;;;;;;;13.77;100.00;98019.84;5093787;28;982;-68
2023/03/11 01:37:15;;;;;;;;;;;;;;;13.73;100.00;98012.91;5093597;28;1140;-68
2023/03/11 01:39:42;;;;;;;;;;;;;;;13.71;100.00;98007.81;5093742;28;824;-67
2023/03/11 01:42:09;;;;;;;;;;;;;;;13.68;100.00;97997.66;5093790;28;827;-68
2023/03/11 01:44:35;;;;;;;;;;;;;;;13.72;100.00;97991.94;5092961;28;875;-67
2023/03/11 01:47:02;;;;;;;;;;;;;;;13.73;100.00;97990.72;5075487;28;1886;-66
2023/03/11 01:49:28;;;;;;;;;;;;;;;13.80;100.00;97996.69;5093684;28;874;-66
2023/03/11 01:52:02;;;;;;;;;;;;;;;13.84;100.00;97988.19;5093797;28;867;-68
2023/03/11 01:54:32;;;;;;;;;;;;;;;13.86;100.00;97980.94;5075045;28;1426;-66
2023/03/11 01:57:00;;;;;;;;;;;;;;;13.84;100.00;97986.19;5093218;28;866;-66
2023/03/11 01:59:30;;;;;;;;;;;;;;;13.81;100.00;97978.03;5093441;28;848;-66
2023/03/11 02:02:13;;;;;;;;;;;;;;;13.82;100.00;97971.22;5093200;28;889;-66
2023/03/11 02:04:40;;;;;;;;;;;;;;;13.85;100.00;97965.53;5074957;28;1251;-67
2023/03/11 02:07:08;;;;;;;;;;;;;;;13.80;100.00;97966.13;5074794;28;1946;-67
2023/03/11 02:09:35;;;;;;;;;;;;;;;13.76;100.00;97956.44;5093018;28;1246;-67
2023/03/11 02:12:02;;;;;;;;;;;;;;;13.71;100.00;97955.06;5092978;28;840;-66
2023/03/11 02:14:30;;;;;;;;;;;;;;;13.71;100.00;97943.22;5092987;28;808;-66
2023/03/11 02:16:57;;;;;;;;;;;;;;;13.67;100.00;97951.69;5092823;28;871;-68
2023/03/11 02:19:42;;;;;;;;;;;;;;;13.65;100.00;97959.72;5074696;28;1180;-70
2023/03/11 02:22:09;;;;;;;;;;;;;;;13.59;100.00;97950.50;5092696;28;930;-67
2023/03/11 02:24:49;;;;;;;;;;;;;;;13.46;100.00;97957.03;5092719;28;820;-68
2023/03/11 02:27:17;;;;;;;;;;;;;;;13.43;100.00;97948.84;5093246;28;1918;-67
2023/03/11 02:29:46;;;;;;;;;;;;;;;13.35;100.00;97942.84;5092834;28;823;-68
2023/03/11 02:32:13;;;;;;;;;;;;;;;13.28;100.00;97934.84;5092694;28;839;-68
2023/03/11 02:34:40;;;;;;;;;;;;;;;13.21;100.00;97922.06;5092637;28;847;-68
2023/03/11 02:37:08;;;;;;;;;;;;;;;13.20;100.00;97917.75;5092477;28;857;-69
2023/03/11 02:39:39;;;;;;;;;;;;;;;13.22;100.00;97915.25;5092422;28;949;-68
2023/03/11 02:42:12;;;;;;;;;;;;;;;13.28;100.00;97909.88;5092616;28;870;-68
2023/03/11 02:44:41;;;;;;;;;;;;;;;13.27;100.00;97931.31;5092408;28;882;-69
2023/03/11 02:47:10;;;;;;;;;;;;;;;13.25;100.00;97922.66;5092567;28;1957;-69
2023/03/11 02:49:37;;;;;;;;;;;;;;;13.23;100.00;97922.38;5092289;28;835;-68
2023/03/11 02:52:04;;;;;;;;;;;;;;;13.23;100.00;97919.59;5092082;28;827;-69
2023/03/11 02:54:30;;;;;;;;;;;;;;;13.24;100.00;97918.34;5092188;28;851;-69
2023/03/11 02:56:57;;;;;;;;;;;;;;;13.14;100.00;97918.84;5092128;28;910;-69
2023/03/11 02:59:24;;;;;;;;;;;;;;;12.95;100.00;97932.75;5092483;28;839;-68
2023/03/11 03:01:50;;;;;;;;;;;;;;;12.76;100.00;97934.75;5092139;28;839;-67
2023/03/11 03:04:17;;;;;;;;;;;;;;;12.64;100.00;97932.91;5092071;28;827;-67
2023/03/11 03:06:43;;;;;;;;;;;;;;;12.54;100.00;97917.50;5073727;28;1898;-68
2023/03/11 03:09:10;;;;;;;;;;;;;;;12.45;100.00;97912.72;5092257;28;1041;-67
2023/03/11 03:11:37;;;;;;;;;;;;;;;12.40;100.00;97908.56;5091766;28;1330;-67
2023/03/11 03:14:03;;;;;;;;;;;;;;;12.36;100.00;97894.09;5092197;28;815;-68
2023/03/11 03:16:30;;;;;;;;;;;;;;;12.36;100.00;97898.88;5091807;28;891;-68
2023/03/11 03:18:56;;;;;;;;;;;;;;;12.36;100.00;97882.25;5091869;28;823;-68
2023/03/11 03:21:23;;;;;;;;;;;;;;;12.38;100.00;97888.88;5091868;28;828;-67
2023/03/11 03:23:50;;;;;;;;;;;;;;;12.47;100.00;97890.88;5073772;28;1282;-67
2023/03/11 03:26:17;;;;;;;;;;;;;;;12.58;100.00;97893.19;5091669;28;1972;-64
2023/03/11 03:28:42;;;;;;;;;;;;;;;12.63;100.00;97882.25;5091766;28;895;-64
2023/03/11 03:31:09;;;;;;;;;;;;;;;12.70;100.00;97881.16;5091611;28;839;-64
2023/03/11 03:33:36;;;;;;;;;;;;;;;12.77;100.00;97886.38;5091631;28;843;-64
2023/03/11 03:36:06;;;;;;;;;;;;;;;12.87;100.00;97887.16;5091608;28;812;-64
2023/03/11 03:38:32;;;;;;;;;;;;;;;12.93;100.00;97881.75;5091579;28;906;-64
2023/03/11 03:40:58;;;;;;;;;;;;;;;12.99;100.00;97886.19;5091595;28;899;-64
2023/03/11 03:43:25;;;;;;;;;;;;;;;13.03;100.00;97881.25;5073407;28;1538;-65
2023/03/11 03:45:57;;;;;;;;;;;;;;;13.04;100.00;97871.72;5091522;28;875;-64
2023/03/11 03:48:24;;;;;;;;;;;;;;;13.05;100.00;97870.47;5091486;28;886;-64
2023/03/11 03:50:50;;;;;;;;;;;;;;;13.04;100.00;97862.63;5091404;28;863;-64
2023/03/11 03:53:16;;;;;;;;;;;;;;;13.05;100.00;97855.84;5091392;28;869;-65
2023/03/11 03:55:43;;;;;;;;;;;;;;;13.02;100.00;97846.44;5091514;28;804;-66
2023/03/11 03:58:10;;;;;;;;;;;;;;;13.03;100.00;97844.44;5091366;28;845;-66
2023/03/11 04:00:38;;;;;;;;;;;;;;;13.03;100.00;97838.91;5091449;28;831;-65
2023/03/11 04:03:04;;;;;;;;;;;;;;;13.03;100.00;97845.19;5091280;28;836;-66
2023/03/11 04:05:31;;;;;;;;;;;;;;;13.02;100.00;97843.69;5091403;28;937;-65
2023/03/11 04:07:57;;;;;;;;;;;;;;;13.07;100.00;97848.59;5093507;28;1964;-66
2023/03/11 04:10:23;;;;;;;;;;;;;;;13.11;100.00;97853.97;5094988;28;1352;-66
2023/03/11 04:12:50;;;;;;;;;;;;;;;13.07;100.00;97845.81;5095295;28;847;-67
2023/03/11 04:15:17;;;;;;;;;;;;;;;13.05;100.00;97844.75;5095192;28;894;-67
2023/03/11 04:17:44;;;;;;;;;;;;;;;13.01;100.00;97852.47;5095280;28;827;-66
2023/03/11 04:20:10;;;;;;;;;;;;;;;12.99;100.00;97852.91;5095144;28;827;-66
2023/03/11 04:22:37;;;;;;;;;;;;;;;12.98;100.00;97842.31;5095112;28;844;-66
2023/03/11 04:25:04;;;;;;;;;;;;;;;12.98;100.00;97836.75;5095031;28;840;-65
2023/03/11 04:27:30;;;;;;;;;;;;;;;12.97;100.00;97838.78;5095037;28;1922;-66
2023/03/11 04:29:57;;;;;;;;;;;;;;;13.00;100.00;97834.28;5094873;28;873;-66
2023/03/11 04:32:24;;;;;;;;;;;;;;;13.04;100.00;97832.13;5094996;28;835;-67
2023/03/11 04:34:50;;;;;;;;;;;;;;;13.06;100.00;97830.41;5094920;28;875;-67
2023/03/11 04:37:17;;;;;;;;;;;;;;;13.03;100.00;97828.56;5094761;28;951;-67
2023/03/11 04:39:44;;;;;;;;;;;;;;;12.99;100.00;97821.66;5094927;28;898;-66
2023/03/11 04:42:12;;;;;;;;;;;;;;;12.96;100.00;97822.59;5094754;28;836;-66
2023/03/11 04:44:39;;;;;;;;;;;;;;;12.98;100.00;97817.34;5094703;28;1008;-66
2023/03/11 04:47:05;;;;;;;;;;;;;;;13.03;100.00;97822.25;5094627;28;1925;-66
2023/03/11 04:49:31;;;;;;;;;;;;;;;13.07;100.00;97822.88;5094609;28;941;-68
2023/03/11 04:51:58;;;;;;;;;;;;;;;13.16;100.00;97825.59;5094557;28;805;-67
2023/03/11 04:54:25;;;;;;;;;;;;;;;13.21;100.00;97829.75;5094508;28;843;-67
2023/03/11 04:56:52;;;;;;;;;;;;;;;13.27;100.00;97825.09;5094789;28;887;-67
2023/03/11 04:59:18;;;;;;;;;;;;;;;13.33;100.00;97825.25;5094447;28;831;-68
2023/03/11 05:01:44;;;;;;;;;;;;;;;13.37;100.00;97821.06;5076205;28;1215;-66
2023/03/11 05:04:11;;;;;;;;;;;;;;;13.37;100.00;97812.75;5094376;28;855;-66
2023/03/11 05:06:37;;;;;;;;;;;;;;;13.45;100.00;97810.41;5094162;28;1893;-67
2023/03/11 05:09:04;;;;;;;;;;;;;;;13.49;100.00;97816.56;5094665;28;1058;-67
2023/03/11 05:11:31;;;;;;;;;;;;;;;13.51;100.00;97814.09;5094102;28;1432;-66
2023/03/11 05:13:57;;;;;;;;;;;;;;;13.51;100.00;97819.63;5094115;28;867;-68
2023/03/11 05:16:24;;;;;;;;;;;;;;;13.53;100.00;97808.81;5094154;28;898;-67
2023/03/11 05:18:51;;;;;;;;;;;;;;;13.57;100.00;97805.84;5074745;28;1250;-67
2023/03/11 05:21:18;;;;;;;;;;;;;;;13.61;100.00;97810.03;5093890;28;938;-66
2023/03/11 05:23:44;;;;;;;;;;;;;;;13.66;100.00;97809.38;5093927;28;867;-67
2023/03/11 05:26:11;;;;;;;;;;;;;;;13.74;100.00;97803.44;5093877;28;1918;-66
2023/03/11 05:28:38;;;;;;;;;;;;;;;13.83;100.00;97803.41;5093925;28;828;-66
2023/03/11 05:31:07;;;;;;;;;;;;;;;13.94;100.00;97809.19;5093976;28;864;-67
2023/03/11 05:33:34;;;;;;;;;;;;;;;14.06;100.00;97799.84;5093748;28;824;-66
2023/03/11 05:36:04;;;;;;;;;;;;;;;14.15;100.00;97803.78;5093742;28;985;-66
2023/03/11 05:38:31;;;;;;;;;;;;;;;14.21;100.00;97796.31;5093942;28;867;-66
2023/03/11 05:40:57;;;;;;;;;;;;;;;14.28;100.00;97801.53;5093636;28;847;-66
2023/03/11 05:43:23;;;;;;;;;;;;;;;14.39;100.00;97796.16;5093632;28;820;-65
2023/03/11 05:45:50;;;;;;;;;;;;;;;14.44;100.00;97803.81;5093477;28;902;-66
2023/03/11 05:48:16;;;;;;;;;;;;;;;14.56;100.00;97793.72;5093460;28;1939;-67
2023/03/11 05:50:43;;;;;;;;;;;;;;;14.69;100.00;97793.44;5093468;28;1069;-65
2023/03/11 05:53:09;;;;;;;;;;;;;;;15.03;100.00;97796.78;5093386;28;911;-66
2023/03/11 05:55:36;;;;;;;;;;;;;;;15.73;100.00;97803.66;5093329;28;804;-65
2023/03/11 05:58:02;;;;;;;;;;;;;;;16.40;100.00;97796.06;5093336;28;839;-65
2023/03/11 06:00:29;;;;;;;;;;;;;;;16.50;100.00;97799.47;5093208;28;835;-66
2023/03/11 06:02:56;;;;;;;;;;;;;;;16.68;100.00;97796.34;5093451;28;796;-67
2023/03/11 06:05:22;;;;;;;;;;;;;;;16.54;100.00;97794.44;5093192;28;875;-67
2023/03/11 06:07:49;;;;;;;;;;;;;;;16.17;100.00;97780.38;5092960;28;1944;-65
2023/03/11 06:10:15;;;;;;;;;;;;;;;15.83;100.00;97791.09;5092759;28;1287;-66
2023/03/11 06:12:42;;;;;;;;;;;;;;;15.61;100.00;97780.41;5093096;28;832;-65
2023/03/11 06:15:08;;;;;;;;;;;;;;;15.53;100.00;97782.84;5093164;28;820;-65
2023/03/11 06:17:35;;;;;;;;;;;;;;;15.79;100.00;97788.53;5093208;28;859;-66
2023/03/11 06:20:01;;;;;;;;;;;;;;;16.07;100.00;97785.34;5093662;28;761;-66
2023/03/11 06:22:28;;;;;;;;;;;;;;;16.33;100.00;97785.38;5092826;28;907;-66
2023/03/11 06:24:54;;;;;;;;;;;;;;;16.55;100.00;97795.97;5093495;28;820;-66
2023/03/11 06:27:21;;;;;;;;;;;;;;;16.26;100.00;97791.38;5092589;28;1910;-67
2023/03/11 06:29:50;;;;;;;;;;;;;;;16.53;100.00;97787.34;5092418;28;864;-66
2023/03/11 06:32:17;;;;;;;;;;;;;;;17.60;100.00;97784.63;5092911;28;875;-66
2023/03/11 06:34:48;;;;;;;;;;;;;;;18.44;100.00;97787.03;5092847;28;827;-66
2023/03/11 06:37:15;;;;;;;;;;;;;;;18.83;100.00;97778.72;5092543;28;832;-66
2023/03/11 06:39:42;;;;;;;;;;;;;;;19.04;100.00;97782.03;5092673;28;907;-64
2023/03/11 06:42:12;;;;;;;;;;;;;;;19.05;100.00;97788.38;5074327;28;1314;-66
2023/03/11 06:44:39;;;;;;;;;;;;;;;18.89;100.00;97785.06;5074163;28;1415;-66
2023/03/11 06:47:05;;;;;;;;;;;;;;;17.95;100.00;97759.94;5074277;28;1963;-63
2023/03/11 06:49:32;;;;;;;;;;;;;;;18.01;100.00;97768.34;5092268;28;820;-66
2023/03/11 06:51:59;;;;;;;;;;;;;;;17.95;100.00;97759.94;5092412;28;895;-66
2023/03/11 06:54:27;;;;;;;;;;;;;;;17.61;100.00;97759.00;5092379;28;891;-65
2023/03/11 06:56:54;;;;;;;;;;;;;;;17.08;100.00;97764.00;5092281;28;832;-65
2023/03/11 06:59:21;;;;;;;;;;;;;;;16.74;100.00;97768.50;5092143;28;867;-64
2023/03/11 07:01:47;;;;;;;;;;;;;;;16.63;100.00;97760.81;5092108;28;840;-65
2023/03/11 07:04:13;;;;;;;;;;;;;;;16.51;100.00;97753.59;5092103;28;875;-64
2023/03/11 07:06:40;;;;;;;;;;;;;;;16.49;100.00;97748.53;5091953;28;1914;-66
2023/03/11 07:09:07;;;;;;;;;;;;;;;16.78;100.00;97746.75;5092262;28;1013;-66
2023/03/11 07:11:34;;;;;;;;;;;;;;;17.20;100.00;97736.94;5091779;28;1199;-65
2023/03/11 07:14:01;;;;;;;;;;;;;;;18.45;100.00;97727.78;5091971;28;898;-66
2023/03/11 07:16:29;;;;;;;;;;;;;;;18.77;100.00;97725.50;5091988;28;875;-65
2023/03/11 07:18:57;;;;;;;;;;;;;;;17.99;100.00;97708.59;5092005;28;823;-65
2023/03/11 07:21:25;;;;;;;;;;;;;;;17.59;100.00;97713.28;5091861;28;899;-65
2023/03/11 07:23:53;;;;;;;;;;;;;;;18.03;100.00;97715.50;5073597;28;1223;-66
2023/03/11 07:26:20;;;;;;;;;;;;;;;17.79;100.00;97701.91;5091620;28;1909;-66
2023/03/11 07:28:48;;;;;;;;;;;;;;;17.54;100.00;97698.03;5091698;28;875;-66
2023/03/11 07:31:19;;;;;;;;;;;;;;;17.66;100.00;97693.25;5091678;28;832;-66
2023/03/11 07:33:46;;;;;;;;;;;;;;;18.22;100.00;97687.06;5091872;28;895;-66
2023/03/11 07:36:15;;;;;;;;;;;;;;;18.47;100.00;97674.88;5091904;28;898;-66
2023/03/11 07:38:41;;;;;;;;;;;;;;;18.45;100.00;97677.44;5091609;28;832;-66
2023/03/11 07:41:10;;;;;;;;;;;;;;;18.59;99.66;97675.66;5091439;28;942;-67
2023/03/11 07:43:37;;;;;;;;;;;;;;;18.32;96.90;97672.34;5091078;28;840;-66
2023/03/11 07:46:04;;;;;;;;;;;;;;;18.22;97.10;97675.88;5073265;28;1945;-65
2023/03/11 07:48:30;;;;;;;;;;;;;;;18.78;95.04;97667.53;5091400;28;848;-67
2023/03/11 07:51:08;;;;;;;;;;;;;;;19.15;92.40;97674.84;5091450;28;812;-66
2023/03/11 07:53:35;;;;;;;;;;;;;;;18.51;93.51;97680.22;5091544;28;808;-66
2023/03/11 07:56:02;;;;;;;;;;;;;;;18.61;91.76;97675.91;5091384;28;896;-66
2023/03/11 07:58:29;;;;;;;;;;;;;;;18.41;93.50;97673.34;5091555;28;836;-66
2023/03/11 08:00:56;;;;;;;;;;;;;;;18.19;92.22;97671.31;5091330;28;867;-67
2023/03/11 08:03:23;;;;;;;;;;;;;;;18.25;95.11;97667.25;5091415;28;879;-66
2023/03/11 08:05:51;;;;;;;;;;;;;;;18.32;91.58;97669.53;5091305;28;898;-66
2023/03/11 08:08:17;;;;;;;;;;;;;;;18.07;92.32;97664.94;5091319;28;1885;-67
2023/03/11 08:10:44;;;;;;;;;;;;;;;18.61;94.40;97666.78;5091046;28;1404;-66
2023/03/11 08:13:10;;;;;;;;;;;;;;;18.90;89.86;97663.44;5091262;28;1072;-67
2023/03/11 08:15:36;;;;;;;;;;;;;;;19.07;90.06;97657.03;5091223;28;828;-66
2023/03/11 08:18:04;;;;;;;;;;;;;;;19.17;87.02;97669.50;5091213;28;843;-67
2023/03/11 08:20:30;;;;;;;;;;;;;;;19.79;85.36;97672.09;5091193;28;950;-68
2023/03/11 08:22:58;;;;;;;;;;;;;;;20.46;84.22;97665.31;5091248;28;824;-67
2023/03/11 08:25:25;;;;;;;;;;;;;;;20.58;78.87;97680.03;5091207;28;895;-66
2023/03/11 08:27:51;;;;;;;;;;;;;;;19.70;80.30;97659.16;5091209;28;2010;-67
2023/03/11 08:30:18;;;;;;;;;;;;;;;19.04;84.88;97658.09;5091193;28;840;-66
2023/03/11 08:32:44;;;;;;;;;;;;;;;18.82;84.87;97656.84;5091115;28;973;-68
2023/03/11 08:35:10;;;;;;;;;;;;;;;18.19;89.11;97665.72;5072915;28;1299;-67
2023/03/11 08:37:37;;;;;;;;;;;;;;;17.38;100.00;97668.75;5091054;28;820;-67
2023/03/11 08:40:04;;;;;;;;;;;;;;;16.57;100.00;97675.56;5091054;28;843;-68
2023/03/11 08:42:31;;;;;;;;;;;;;;;15.25;100.00;97702.50;5090964;28;859;-58
2023/03/11 08:44:58;;;;;;;;;;;;;;;13.60;100.00;97697.44;5091062;28;831;-61
2023/03/11 08:47:24;;;;;;;;;;;;;;;12.80;100.00;97688.66;5090742;28;1968;-61
2023/03/11 08:49:51;;;;;;;;;;;;;;;12.52;100.00;97685.19;5091111;28;839;-61
2023/03/11 08:52:17;;;;;;;;;;;;;;;12.59;100.00;97684.13;5091082;28;864;-61
2023/03/11 08:54:44;;;;;;;;;;;;;;;12.78;100.00;97671.72;5094206;28;823;-61
2023/03/11 08:57:10;;;;;;;;;;;;;;;12.86;100.00;97656.25;5095623;28;764;-62
2023/03/11 08:59:37;;;;;;;;;;;;;;;13.16;100.00;97653.63;5076301;28;974;-61
2023/03/11 09:05:06;;;;;;;;;;;;;;;13.85;100.00;97659.31;5094382;28;618;-59
2023/03/11 09:07:33;;;;;;;;;;;;;;;14.05;100.00;97653.09;5094166;28;1874;-58
2023/03/11 09:09:59;;;;;;;;;;;;;;;14.58;100.00;97660.56;5094254;28;1204;-58
2023/03/11 09:12:26;;;;;;;;;;;;;;;15.12;100.00;97660.34;5076497;28;835;-58
2023/03/11 09:14:53;;;;;;;;;;;;;;;15.70;100.00;97664.09;5094192;28;985;-59
2023/03/11 09:17:20;;;;;;;;;;;;;;;16.25;100.00;97664.41;5094183;28;904;-59
2023/03/11 09:19:47;;;;;;;;;;;;;;;16.51;100.00;97651.22;5093969;28;954;-59
2023/03/11 09:22:14;;;;;;;;;;;;;;;16.39;100.00;97638.44;5093935;28;859;-59
2023/03/11 09:24:41;;;;;;;;;;;;;;;16.06;100.00;97656.38;5094051;28;839;-59
2023/03/11 09:27:09;;;;;;;;;;;;;;;15.81;100.00;97644.00;5094168;28;1917;-59
2023/03/11 09:29:35;;;;;;;;;;;;;;;15.60;100.00;97646.00;5093878;28;887;-59
2023/03/11 09:32:02;;;;;;;;;;;;;;;15.66;100.00;97641.28;5093952;28;820;-59
2023/03/11 09:34:29;;;;;;;;;;;;;;;15.82;100.00;97653.09;5093736;28;808;-59
2023/03/11 09:36:56;;;;;;;;;;;;;;;16.05;100.00;97652.06;5093648;28;956;-60
2023/03/11 10:10:25;;;;;;;;;;;;;;;15.34;100.00;97626.47;5253720;22;1497;-64
2023/03/11 10:12:58;;;;;;;;;;;;;;;15.39;100.00;97628.56;5093118;28;823;-65
2023/03/11 10:15:47;;;;;;;;;;;;;;;15.49;100.00;97621.59;5092963;28;855;-64
2023/03/11 10:18:23;;;;;;;;;;;;;;;15.40;100.00;97615.41;5092992;28;831;-65
2023/03/11 10:20:56;;;;;;;;;;;;;;;15.31;100.00;97616.31;5092943;28;851;-65
2023/03/11 10:23:45;;;;;;;;;;;;;;;15.16;100.00;97616.38;5092877;28;878;-64
2023/03/11 10:26:13;;;;;;;;;;;;;;;14.86;100.00;97608.16;5074041;28;1998;-66
2023/03/11 10:29:00;;;;;;;;;;;;;;;14.72;100.00;97599.84;5092751;28;867;-66
2023/03/11 10:31:31;;;;;;;;;;;;;;;14.80;100.00;97601.75;5092568;28;1149;-66
2023/03/11 10:34:04;;;;;;;;;;;;;;;14.82;100.00;97607.59;5092695;28;867;-66
2023/03/11 10:36:38;;;;;;;;;;;;;;;14.73;100.00;97598.63;5092453;28;966;-67
2023/03/11 10:39:05;;;;;;;;;;;;;;;14.44;100.00;97605.75;5092490;28;882;-66
2023/03/11 10:41:43;;;;;;;;;;;;;;;14.02;100.00;97595.75;5092505;28;823;-66
2023/03/11 10:44:18;;;;;;;;;;;;;;;13.83;100.00;97598.69;5092514;28;827;-66
2023/03/11 10:46:44;;;;;;;;;;;;;;;13.96;100.00;97594.88;5093086;28;1972;-66
2023/03/11 10:49:14;;;;;;;;;;;;;;;14.27;100.00;97594.34;5092428;28;1313;-66
2023/03/11 10:51:43;;;;;;;;;;;;;;;14.66;100.00;97588.66;5092377;28;913;-67
2023/03/11 10:54:20;;;;;;;;;;;;;;;15.04;100.00;97579.31;5092260;28;819;-66
2023/03/11 10:56:52;;;;;;;;;;;;;;;15.54;100.00;97577.59;5092508;28;843;-67
2023/03/11 10:59:26;;;;;;;;;;;;;;;15.85;100.00;97582.47;5092199;28;894;-68
2023/03/11 11:01:57;;;;;;;;;;;;;;;15.90;100.00;97574.19;5092135;28;929;-67
2023/03/11 11:04:44;;;;;;;;;;;;;;;15.98;100.00;97559.78;5092092;28;823;-67
2023/03/11 11:07:31;;;;;;;;;;;;;;;16.03;100.00;97564.66;5091822;28;1958;-66
2023/03/11 11:10:18;;;;;;;;;;;;;;;16.00;100.00;97560.84;5091904;28;1284;-67
2023/03/11 11:13:16;;;;;;;;;;;;;;;16.05;100.00;97559.38;5092012;28;1283;-67
2023/03/11 11:15:56;;;;;;;;;;;;;;;16.03;100.00;97565.44;5091876;28;855;-66
2023/03/11 11:18:28;;;;;;;;;;;;;;;15.90;100.00;97562.28;5073036;28;1179;-66
2023/03/11 11:21:00;;;;;;;;;;;;;;;15.60;100.00;97581.22;5091869;28;844;-65
2023/03/11 11:23:37;;;;;;;;;;;;;;;15.42;100.00;97587.84;5091812;28;913;-66
2023/03/11 11:26:20;;;;;;;;;;;;;;;15.38;100.00;97585.25;5073713;28;1340;-66
2023/03/11 11:29:04;;;;;;;;;;;;;;;15.40;100.00;97587.56;5073476;28;1552;-66
2023/03/11 11:31:31;;;;;;;;;;;;;;;15.40;100.00;97576.44;5091984;28;811;-66
2023/03/11 11:33:58;;;;;;;;;;;;;;;15.42;100.00;97577.47;5091585;28;909;-67
2023/03/11 11:36:33;;;;;;;;;;;;;;;15.53;100.00;97585.16;5091874;28;898;-66
2023/03/11 11:39:03;;;;;;;;;;;;;;;15.64;100.00;97578.94;5091676;28;882;-66
2023/03/11 11:41:32;;;;;;;;;;;;;;;15.74;100.00;97585.16;5091628;28;866;-66
2023/03/11 11:44:00;;;;;;;;;;;;;;;15.80;100.00;97578.38;5091573;28;865;-66
2023/03/11 11:46:30;;;;;;;;;;;;;;;16.00;100.00;97574.78;5091428;28;1890;-67
2023/03/11 11:48:56;;;;;;;;;;;;;;;16.04;100.00;97577.31;5091493;28;1040;-67
2023/03/11 11:51:29;;;;;;;;;;;;;;;15.60;100.00;97573.63;5091433;28;811;-66
2023/03/11 11:53:56;;;;;;;;;;;;;;;15.21;100.00;97578.75;5092118;28;825;-67
2023/03/11 11:56:27;;;;;;;;;;;;;;;14.95;100.00;97562.00;5073407;28;1286;-66
2023/03/11 11:58:54;;;;;;;;;;;;;;;14.82;100.00;97565.13;5091379;28;866;-66
2023/03/11 12:01:38;;;;;;;;;;;;;;;14.70;100.00;97569.75;5091456;28;812;-66
2023/03/11 12:04:22;;;;;;;;;;;;;;;14.54;100.00;97567.47;5092103;28;795;-67
2023/03/11 12:06:49;;;;;;;;;;;;;;;14.42;100.00;97572.09;5091258;28;1881;-67
2023/03/11 12:09:31;;;;;;;;;;;;;;;14.33;100.00;97566.66;5091277;28;1268;-66
2023/03/11 12:12:15;;;;;;;;;;;;;;;14.35;100.00;97573.28;5091403;28;831;-65
2023/03/11 12:15:01;;;;;;;;;;;;;;;14.46;100.00;97578.22;5091280;28;895;-66
2023/03/11 12:17:29;;;;;;;;;;;;;;;14.66;100.00;97580.34;5072427;28;1260;-66
2023/03/11 12:20:19;;;;;;;;;;;;;;;14.90;100.00;97586.47;5091316;28;941;-66
2023/03/11 12:22:54;;;;;;;;;;;;;;;15.01;100.00;97587.88;5091234;28;850;-67
2023/03/11 12:25:21;;;;;;;;;;;;;;;14.96;100.00;97597.66;5091129;28;905;-66
2023/03/11 12:27:54;;;;;;;;;;;;;;;14.85;100.00;97601.06;5091290;28;1973;-66
2023/03/11 12:30:26;;;;;;;;;;;;;;;14.67;100.00;97615.22;5095366;28;932;-66
2023/03/11 12:32:58;;;;;;;;;;;;;;;14.54;100.00;97611.97;5095063;28;835;-66
2023/03/11 12:35:29;;;;;;;;;;;;;;;14.46;100.00;97614.34;5095020;28;926;-66
2023/03/11 12:37:58;;;;;;;;;;;;;;;14.42;100.00;97614.56;5094784;28;902;-66
2023/03/11 12:40:46;;;;;;;;;;;;;;;14.40;100.00;97608.72;5094833;28;811;-66
2023/03/11 12:43:32;;;;;;;;;;;;;;;14.33;100.00;97622.25;5094839;28;835;-66
2023/03/11 12:45:59;;;;;;;;;;;;;;;14.26;100.00;97620.63;5076354;28;1481;-65
2023/03/11 12:48:29;;;;;;;;;;;;;;;14.25;100.00;97624.63;5094841;28;1882;-66
2023/03/11 12:50:56;;;;;;;;;;;;;;;14.19;100.00;97626.56;5094923;28;874;-66
2023/03/11 12:53:41;;;;;;;;;;;;;;;14.14;100.00;97628.00;5094552;28;962;-66
2023/03/11 12:56:08;;;;;;;;;;;;;;;14.15;100.00;97629.53;5094638;28;898;-65
2023/03/11 12:58:34;;;;;;;;;;;;;;;14.19;100.00;97626.56;5094390;28;902;-65
2023/03/11 13:01:23;;;;;;;;;;;;;;;14.28;100.00;97627.22;5094464;28;905;-65
2023/03/11 13:03:57;;;;;;;;;;;;;;;14.55;100.00;97635.72;5094394;28;836;-65
2023/03/11 13:06:24;;;;;;;;;;;;;;;14.72;100.00;97620.06;5094679;28;1950;-65
2023/03/11 13:08:54;;;;;;;;;;;;;;;14.79;100.00;97621.72;5094867;28;980;-65
2023/03/11 13:11:28;;;;;;;;;;;;;;;14.79;100.00;97625.25;5094073;28;1258;-65
2023/03/11 13:14:08;;;;;;;;;;;;;;;14.74;100.00;97617.56;5094220;28;855;-65
2023/03/11 13:16:37;;;;;;;;;;;;;;;14.49;100.00;97608.63;5076128;28;1515;-65
2023/03/11 13:19:27;;;;;;;;;;;;;;;14.33;100.00;97617.44;5094255;28;897;-66
2023/03/11 13:21:58;;;;;;;;;;;;;;;14.24;100.00;97617.56;5083476;28;1034;-67
2023/03/11 13:24:25;;;;;;;;;;;;;;;14.12;100.00;97616.59;5094068;28;878;-66
2023/03/11 13:27:03;;;;;;;;;;;;;;;14.06;100.00;97624.84;5075649;28;1906;-66
2023/03/11 13:29:46;;;;;;;;;;;;;;;14.11;100.00;97631.75;5094199;28;866;-66
2023/03/11 13:32:23;;;;;;;;;;;;;;;14.21;100.00;97627.63;5093779;28;815;-66
2023/03/11 13:34:57;;;;;;;;;;;;;;;14.31;100.00;97628.28;5093860;28;839;-66
2023/03/11 13:37:26;;;;;;;;;;;;;;;14.39;100.00;97634.97;5093636;28;902;-67
2023/03/11 13:40:01;;;;;;;;;;;;;;;14.41;100.00;97640.81;5092878;28;890;-65